Time;durP1;ratioP1;P1;durP2;ratioP2;P2;SDS_P1;SDS_P2;PMS_P1;PMS_P2;Temp;Humidity;BMP_temperature;BMP_pressure;BME280_temperature;BME280_humidity;BME280_pressure;Samples;Min_cycle;Max_cycle;Signal;HPM_P1;HPM_P2
2022/07/30 00:01:13;;;;;;;2.05;0.80;;;25.80;58.70;;;;;;5034939;28;20407;-68
2022/07/30 00:03:38;;;;;;;1.00;0.60;;;25.80;58.70;;;;;;5035065;28;20033;-68
2022/07/30 00:06:04;;;;;;;1.45;0.63;;;25.70;58.60;;;;;;5033976;28;20021;-68
2022/07/30 00:08:29;;;;;;;2.40;0.70;;;25.70;58.70;;;;;;5018076;28;20029;-68
2022/07/30 00:10:55;;;;;;;1.02;0.63;;;25.70;58.70;;;;;;5014270;28;20374;-68
2022/07/30 00:13:21;;;;;;;0.75;0.70;;;25.70;58.70;;;;;;5015247;28;20459;-68
2022/07/30 00:15:46;;;;;;;0.57;0.57;;;25.70;58.90;;;;;;5015150;28;20492;-68
2022/07/30 00:18:12;;;;;;;0.50;0.50;;;25.70;58.80;;;;;;5014946;28;20054;-68
2022/07/30 00:20:39;;;;;;;0.73;0.73;;;25.70;58.90;;;;;;5015110;28;20104;-68
2022/07/30 00:23:04;;;;;;;1.45;0.80;;;25.70;58.90;;;;;;5013779;28;20026;-68
2022/07/30 00:25:30;;;;;;;0.82;0.50;;;25.70;59.00;;;;;;5015145;28;20026;-68
2022/07/30 00:27:56;;;;;;;0.77;0.57;;;25.70;59.10;;;;;;5034700;28;20049;-68
2022/07/30 00:30:22;;;;;;;2.92;0.65;;;25.70;59.10;;;;;;5033409;28;20079;-68
2022/07/30 00:32:47;;;;;;;0.98;0.52;;;25.70;59.10;;;;;;5065412;28;20021;-68
2022/07/30 00:35:13;;;;;;;1.23;0.82;;;25.70;59.10;;;;;;5033329;28;20017;-68
2022/07/30 00:37:38;;;;;;;0.85;0.52;;;25.60;59.10;;;;;;5065486;28;20021;-67
2022/07/30 00:40:06;;;;;;;6.05;0.68;;;25.70;59.20;;;;;;5065445;28;20021;-68
2022/07/30 00:42:46;;;;;;;1.08;0.50;;;25.60;59.30;;;;;;5065402;28;20119;-68
2022/07/30 00:45:13;;;;;;;2.00;0.77;;;25.60;59.20;;;;;;5065034;28;20025;-67
2022/07/30 00:47:38;;;;;;;0.60;0.55;;;25.70;59.30;;;;;;5048146;28;20489;-68
2022/07/30 00:50:06;;;;;;;1.00;0.50;;;25.60;59.10;;;;;;5033129;28;20057;-68
2022/07/30 00:52:32;;;;;;;1.13;0.60;;;25.60;59.10;;;;;;5064945;28;20021;-68
2022/07/30 00:54:58;;;;;;;1.67;0.70;;;25.60;59.20;;;;;;5065011;28;20018;-68
2022/07/30 00:57:24;;;;;;;1.00;0.90;;;25.60;59.20;;;;;;5031635;28;20060;-68
2022/07/30 00:59:50;;;;;;;0.98;0.70;;;25.60;59.20;;;;;;5031429;28;20444;-68
2022/07/30 01:02:17;;;;;;;1.95;0.60;;;25.60;59.30;;;;;;5032396;28;20100;-68
2022/07/30 01:04:44;;;;;;;1.05;0.63;;;25.50;59.40;;;;;;5032638;28;20021;-68
2022/07/30 01:07:12;;;;;;;3.70;0.70;;;25.60;59.40;;;;;;5036591;28;20059;-68
2022/07/30 01:09:38;;;;;;;1.17;0.57;;;25.60;59.60;;;;;;5052253;28;20021;-68
2022/07/30 01:12:05;;;;;;;1.60;0.60;;;25.60;59.50;;;;;;5052195;28;20513;-68
2022/07/30 01:14:33;;;;;;;1.40;0.68;;;25.60;59.50;;;;;;5050674;28;20009;-68
2022/07/30 01:16:58;;;;;;;0.68;0.68;;;25.60;59.60;;;;;;5050886;28;20025;-68
2022/07/30 01:22:29;;;;;;;1.50;0.70;;;25.50;59.50;;;;;;5037621;28;20060;-68
2022/07/30 01:24:56;;;;;;;1.67;0.80;;;25.50;59.50;;;;;;5031206;28;20026;-68
2022/07/30 01:27:22;;;;;;;1.10;0.70;;;25.50;59.60;;;;;;5063746;28;20038;-68
2022/07/30 01:29:48;;;;;;;0.60;0.55;;;25.50;59.80;;;;;;5063685;28;20083;-68
2022/07/30 01:32:13;;;;;;;0.80;0.68;;;25.50;59.80;;;;;;5047326;28;20018;-68
2022/07/30 01:34:39;;;;;;;1.08;0.50;;;25.50;59.70;;;;;;5047404;28;20014;-68
2022/07/30 01:37:07;;;;;;;1.85;0.60;;;25.50;59.80;;;;;;5047382;28;20052;-68
2022/07/30 01:39:32;;;;;;;2.13;0.85;;;25.50;59.80;;;;;;5046827;28;20475;-68
2022/07/30 01:41:58;;;;;;;1.55;0.70;;;25.50;59.70;;;;;;5047217;28;20040;-68
2022/07/30 01:44:25;;;;;;;0.60;0.60;;;25.50;59.90;;;;;;5063514;28;20384;-67
2022/07/30 01:46:51;;;;;;;0.98;0.68;;;25.50;59.90;;;;;;5047279;28;20029;-68
2022/07/30 01:49:17;;;;;;;0.73;0.57;;;25.50;59.90;;;;;;5046851;28;20051;-68
2022/07/30 01:51:43;;;;;;;0.60;0.50;;;25.50;59.90;;;;;;5063548;28;20104;-68
2022/07/30 01:54:09;;;;;;;0.40;0.40;;;25.50;59.90;;;;;;5047013;28;20021;-68
2022/07/30 01:56:34;;;;;;;0.73;0.55;;;25.50;60.00;;;;;;5046847;28;20071;-67
2022/07/30 01:59:00;;;;;;;2.05;0.68;;;25.40;59.90;;;;;;5046419;28;20021;-68
2022/07/30 02:01:26;;;;;;;0.77;0.60;;;25.50;60.10;;;;;;5030321;28;20049;-68
2022/07/30 02:03:52;;;;;;;0.77;0.70;;;25.40;60.00;;;;;;5031627;28;20096;-67
2022/07/30 02:06:22;;;;;;;1.27;0.60;;;25.40;60.00;;;;;;5046660;28;20368;-68
2022/07/30 02:08:53;;;;;;;0.80;0.68;;;25.40;60.00;;;;;;5050304;28;20048;-68
2022/07/30 02:14:13;;;;;;;2.90;0.57;;;25.50;60.10;;;;;;5049914;28;20114;-68
2022/07/30 02:16:39;;;;;;;1.05;0.50;;;25.40;60.00;;;;;;5034163;28;20071;-68
2022/07/30 02:19:11;;;;;;;2.80;0.57;;;25.40;60.00;;;;;;5033187;28;20457;-68
2022/07/30 02:21:38;;;;;;;1.88;0.50;;;25.40;60.00;;;;;;5033605;28;20403;-68
2022/07/30 02:24:05;;;;;;;0.60;0.60;;;25.40;60.10;;;;;;5049763;28;20057;-68
2022/07/30 02:26:31;;;;;;;0.63;0.50;;;25.40;60.10;;;;;;5033085;28;20021;-68
2022/07/30 02:28:57;;;;;;;1.00;0.90;;;25.40;60.10;;;;;;5049239;28;20045;-68
2022/07/30 02:31:24;;;;;;;0.80;0.50;;;25.40;60.00;;;;;;5011856;28;20041;-68
2022/07/30 02:33:51;;;;;;;1.13;0.55;;;25.40;60.10;;;;;;5046295;28;20037;-68
2022/07/30 02:36:17;;;;;;;0.50;0.45;;;25.40;60.10;;;;;;5046076;28;20059;-68
2022/07/30 02:38:43;;;;;;;0.57;0.50;;;25.40;60.10;;;;;;5046223;28;20131;-68
2022/07/30 02:41:08;;;;;;;0.47;0.47;;;25.40;60.10;;;;;;5063093;28;20025;-68
2022/07/30 02:43:34;;;;;;;2.50;0.70;;;25.40;60.20;;;;;;5062820;28;20022;-68
2022/07/30 02:46:00;;;;;;;1.00;0.50;;;25.40;60.10;;;;;;5046297;28;20025;-68
2022/07/30 02:48:26;;;;;;;1.00;0.60;;;25.40;60.10;;;;;;5062823;28;20483;-68
2022/07/30 02:50:52;;;;;;;0.70;0.50;;;25.40;60.10;;;;;;5046110;28;20025;-68
2022/07/30 02:53:18;;;;;;;2.78;0.70;;;25.40;60.10;;;;;;5046028;28;20026;-68
2022/07/30 02:55:44;;;;;;;0.43;0.43;;;25.40;60.20;;;;;;5030819;28;20024;-68
2022/07/30 02:58:09;;;;;;;0.82;0.60;;;25.40;60.20;;;;;;5030752;28;20471;-68
2022/07/30 03:00:36;;;;;;;0.77;0.70;;;25.40;60.20;;;;;;5045812;28;20025;-67
2022/07/30 03:03:03;;;;;;;0.82;0.80;;;25.40;60.20;;;;;;5046001;28;20091;-68
2022/07/30 03:05:29;;;;;;;0.50;0.45;;;25.30;60.10;;;;;;5045833;28;20017;-68
2022/07/30 03:07:55;;;;;;;0.88;0.50;;;25.40;60.30;;;;;;5045989;28;20428;-68
2022/07/30 03:10:21;;;;;;;0.60;0.60;;;25.30;60.20;;;;;;5062414;28;20025;-68
2022/07/30 03:12:47;;;;;;;0.88;0.40;;;25.40;60.20;;;;;;5045841;28;20044;-68
2022/07/30 03:15:13;;;;;;;1.73;0.77;;;25.40;60.20;;;;;;5046005;28;20020;-68
2022/07/30 03:17:41;;;;;;;0.73;0.50;;;25.30;60.20;;;;;;5030609;28;20147;-68
2022/07/30 03:20:08;;;;;;;0.50;0.50;;;25.30;60.20;;;;;;5062164;28;20017;-68
2022/07/30 03:22:35;;;;;;;0.65;0.55;;;25.30;60.20;;;;;;5063709;28;20021;-68
2022/07/30 03:25:01;;;;;;;0.50;0.50;;;25.30;60.20;;;;;;5049455;28;20018;-68
2022/07/30 03:27:26;;;;;;;1.38;0.50;;;25.30;60.20;;;;;;5049491;28;20045;-68
2022/07/30 03:29:53;;;;;;;1.48;0.60;;;25.30;60.20;;;;;;5047684;28;20037;-68
2022/07/30 03:32:18;;;;;;;1.42;0.57;;;25.30;60.20;;;;;;5066328;28;20009;-68
2022/07/30 03:34:44;;;;;;;0.85;0.52;;;25.30;60.20;;;;;;5049528;28;20079;-68
2022/07/30 03:37:10;;;;;;;0.60;0.40;;;25.30;60.20;;;;;;5066666;28;20036;-68
2022/07/30 03:39:36;;;;;;;0.63;0.63;;;25.30;60.20;;;;;;5049247;28;20033;-68
2022/07/30 03:42:02;;;;;;;0.68;0.60;;;25.30;60.20;;;;;;5066135;28;20024;-68
2022/07/30 03:44:29;;;;;;;0.80;0.73;;;25.30;60.20;;;;;;5049252;28;20105;-68
2022/07/30 03:46:54;;;;;;;1.23;0.40;;;25.30;60.20;;;;;;5066201;28;20064;-68
2022/07/30 03:49:20;;;;;;;1.58;0.60;;;25.30;60.20;;;;;;5049156;28;20033;-68
2022/07/30 03:51:46;;;;;;;0.30;0.30;;;25.30;60.20;;;;;;5049250;28;20022;-68
2022/07/30 03:54:12;;;;;;;0.50;0.50;;;25.30;60.20;;;;;;5065863;28;20404;-68
2022/07/30 03:56:38;;;;;;;1.25;0.50;;;25.30;60.20;;;;;;5049070;28;20036;-68
2022/07/30 03:59:04;;;;;;;1.25;0.60;;;25.30;60.30;;;;;;5065669;28;20028;-68
2022/07/30 04:01:29;;;;;;;0.77;0.50;;;25.30;60.30;;;;;;5065826;28;20029;-68
2022/07/30 04:04:02;;;;;;;0.40;0.40;;;25.30;60.30;;;;;;5049127;28;20084;-68
2022/07/30 04:06:27;;;;;;;0.40;0.40;;;25.30;60.30;;;;;;5033550;28;20025;-68
2022/07/30 04:08:53;;;;;;;2.63;0.63;;;25.30;60.30;;;;;;5052788;28;20418;-68
2022/07/30 04:11:19;;;;;;;0.77;0.57;;;25.30;60.20;;;;;;5053301;28;20047;-68
2022/07/30 04:13:44;;;;;;;0.50;0.50;;;25.30;60.30;;;;;;5053384;28;20045;-68
2022/07/30 04:16:12;;;;;;;0.77;0.47;;;25.30;60.30;;;;;;5053377;28;20021;-67
2022/07/30 04:18:41;;;;;;;1.08;0.40;;;25.20;60.30;;;;;;5051841;28;20021;-68
2022/07/30 04:21:08;;;;;;;1.05;0.60;;;25.30;60.30;;;;;;5051985;28;20024;-68
2022/07/30 04:23:33;;;;;;;0.50;0.50;;;25.20;60.30;;;;;;5052874;28;20017;-68
2022/07/30 04:26:00;;;;;;;1.17;0.50;;;25.20;60.20;;;;;;5051916;28;20029;-68
2022/07/30 04:28:26;;;;;;;0.80;0.55;;;25.20;60.30;;;;;;5051593;28;20041;-68
2022/07/30 04:30:53;;;;;;;1.05;0.60;;;25.20;60.30;;;;;;5035189;28;20039;-67
2022/07/30 04:33:18;;;;;;;1.65;0.47;;;25.20;60.30;;;;;;5051329;28;20101;-68
2022/07/30 04:35:44;;;;;;;1.38;0.60;;;25.20;60.30;;;;;;5034650;28;20145;-68
2022/07/30 04:38:10;;;;;;;0.60;0.50;;;25.20;60.30;;;;;;5052697;28;20127;-68
2022/07/30 04:40:36;;;;;;;1.77;0.70;;;25.20;60.40;;;;;;5052631;28;20513;-68
2022/07/30 04:43:01;;;;;;;0.85;0.40;;;25.20;60.40;;;;;;5052833;28;20025;-68
2022/07/30 04:45:27;;;;;;;0.70;0.50;;;25.20;60.40;;;;;;5051534;28;20031;-68
2022/07/30 04:47:53;;;;;;;0.47;0.47;;;25.20;60.50;;;;;;5052538;28;20021;-68
2022/07/30 04:50:23;;;;;;;0.55;0.50;;;25.20;60.40;;;;;;5052708;28;20017;-68
2022/07/30 04:52:49;;;;;;;1.35;0.63;;;25.20;60.40;;;;;;5035217;28;20397;-68
2022/07/30 04:55:15;;;;;;;0.52;0.52;;;25.10;60.50;;;;;;5034853;28;20102;-68
2022/07/30 04:57:41;;;;;;;1.17;0.50;;;25.10;60.30;;;;;;5051156;28;20060;-68
2022/07/30 05:00:07;;;;;;;0.75;0.50;;;25.10;60.50;;;;;;5043005;28;20372;-68
2022/07/30 05:02:33;;;;;;;1.15;0.60;;;25.10;60.30;;;;;;5064565;28;20037;-68
2022/07/30 05:04:59;;;;;;;0.93;0.60;;;25.10;60.40;;;;;;5047830;28;20045;-68
2022/07/30 05:07:25;;;;;;;0.52;0.40;;;25.10;60.40;;;;;;5047837;28;20072;-68
2022/07/30 05:09:50;;;;;;;0.50;0.50;;;25.10;60.40;;;;;;5048060;28;20021;-68
2022/07/30 05:12:16;;;;;;;0.60;0.40;;;25.10;60.40;;;;;;5032512;28;20096;-68
2022/07/30 05:14:41;;;;;;;0.85;0.50;;;25.10;60.50;;;;;;5032378;28;20447;-68
2022/07/30 05:17:07;;;;;;;0.93;0.47;;;25.10;60.40;;;;;;5032537;28;20025;-68
2022/07/30 05:19:33;;;;;;;0.60;0.50;;;25.10;60.50;;;;;;5064296;28;20498;-67
2022/07/30 05:21:58;;;;;;;1.00;0.70;;;25.10;60.50;;;;;;5032145;28;20068;-68
2022/07/30 05:24:24;;;;;;;3.00;0.50;;;25.10;60.50;;;;;;5047484;28;20059;-67
2022/07/30 05:26:50;;;;;;;0.82;0.60;;;25.10;60.60;;;;;;5029130;28;20030;-68
2022/07/30 05:29:15;;;;;;;2.22;0.50;;;25.10;60.60;;;;;;5063761;28;20045;-68
2022/07/30 05:31:41;;;;;;;0.60;0.47;;;25.10;60.60;;;;;;5031901;28;20402;-68
2022/07/30 05:34:07;;;;;;;0.73;0.50;;;25.10;60.60;;;;;;5032244;28;20024;-67
2022/07/30 05:36:32;;;;;;;1.90;0.60;;;25.10;60.70;;;;;;5031689;28;20031;-68
2022/07/30 05:38:59;;;;;;;0.85;0.60;;;25.10;60.80;;;;;;5047174;28;20415;-68
2022/07/30 05:41:26;;;;;;;0.68;0.50;;;25.10;60.80;;;;;;5032112;28;20080;-68
2022/07/30 05:43:52;;;;;;;0.50;0.40;;;25.10;60.80;;;;;;5063340;28;20558;-68
2022/07/30 05:46:17;;;;;;;0.40;0.40;;;25.10;60.80;;;;;;5030865;28;20096;-68
2022/07/30 05:48:43;;;;;;;1.85;0.60;;;25.10;60.80;;;;;;5031563;28;20017;-68
2022/07/30 05:51:09;;;;;;;0.60;0.60;;;25.10;60.80;;;;;;5031678;28;20032;-68
2022/07/30 05:53:34;;;;;;;2.85;0.70;;;25.00;60.70;;;;;;5030305;28;20025;-68
2022/07/30 05:56:00;;;;;;;1.15;0.50;;;25.00;60.80;;;;;;5032032;28;20026;-68
2022/07/30 05:58:25;;;;;;;1.30;0.60;;;25.00;60.70;;;;;;5030896;28;20021;-68
2022/07/30 06:00:51;;;;;;;0.85;0.43;;;25.10;60.80;;;;;;5031251;28;20037;-68
2022/07/30 06:03:17;;;;;;;0.57;0.57;;;25.00;60.90;;;;;;5032049;28;20025;-68
2022/07/30 06:05:42;;;;;;;0.52;0.50;;;25.00;60.80;;;;;;5031263;28;20029;-68
2022/07/30 06:08:08;;;;;;;0.75;0.50;;;25.00;60.80;;;;;;5045011;28;20487;-68
2022/07/30 06:10:34;;;;;;;0.60;0.45;;;25.00;60.80;;;;;;5051000;28;20017;-68
2022/07/30 06:12:59;;;;;;;0.40;0.40;;;25.00;60.90;;;;;;5049971;28;20395;-68
2022/07/30 06:15:25;;;;;;;2.97;0.43;;;25.00;61.00;;;;;;5051281;28;20127;-68
2022/07/30 06:17:51;;;;;;;0.47;0.47;;;25.00;60.90;;;;;;5050863;28;20098;-68
2022/07/30 06:20:17;;;;;;;1.17;0.40;;;25.00;61.00;;;;;;5049648;28;20027;-68
2022/07/30 06:22:43;;;;;;;0.57;0.57;;;25.00;61.00;;;;;;5049706;28;20029;-68
2022/07/30 06:25:08;;;;;;;0.57;0.52;;;25.00;61.00;;;;;;5049690;28;20521;-68
2022/07/30 06:27:35;;;;;;;0.40;0.40;;;25.00;60.90;;;;;;5050522;28;20055;-68
2022/07/30 06:30:04;;;;;;;1.33;0.50;;;25.00;61.00;;;;;;5050641;28;20041;-68
2022/07/30 06:32:29;;;;;;;0.57;0.50;;;25.00;61.00;;;;;;5050855;28;20079;-67
2022/07/30 06:34:55;;;;;;;2.65;0.40;;;25.00;61.00;;;;;;5050454;28;20028;-68
2022/07/30 06:37:21;;;;;;;0.75;0.43;;;25.00;61.00;;;;;;5051008;28;20028;-68
2022/07/30 06:39:47;;;;;;;0.70;0.70;;;25.00;61.00;;;;;;5050739;28;20025;-68
2022/07/30 06:42:13;;;;;;;0.40;0.40;;;25.00;61.00;;;;;;5033042;28;20032;-68
2022/07/30 06:44:38;;;;;;;1.77;0.45;;;25.00;61.00;;;;;;5050640;28;20032;-68
2022/07/30 06:47:04;;;;;;;1.17;0.35;;;25.00;61.00;;;;;;5050635;28;20475;-68
2022/07/30 06:49:33;;;;;;;1.67;0.50;;;25.00;61.00;;;;;;5050642;28;20025;-68
2022/07/30 06:51:59;;;;;;;7.85;0.60;;;25.00;61.00;;;;;;5029141;28;20105;-68
2022/07/30 06:54:24;;;;;;;3.22;0.60;;;25.00;61.10;;;;;;5062874;28;20117;-68
2022/07/30 06:56:50;;;;;;;0.70;0.40;;;25.00;62.10;;;;;;5031447;28;20022;-68
2022/07/30 06:59:16;;;;;;;1.13;0.50;;;25.00;61.00;;;;;;5034985;28;20079;-68
2022/07/30 07:01:41;;;;;;;0.77;0.60;;;24.90;61.00;;;;;;5034737;28;20038;-68
2022/07/30 07:04:07;;;;;;;0.50;0.50;;;25.00;61.10;;;;;;5066664;28;20079;-68
2022/07/30 07:06:33;;;;;;;1.45;0.55;;;25.00;61.10;;;;;;5066801;28;20033;-68
2022/07/30 07:08:58;;;;;;;0.40;0.40;;;24.90;61.10;;;;;;5033448;28;20033;-67
2022/07/30 07:11:24;;;;;;;0.30;0.30;;;24.90;59.10;;;;;;5066810;28;20479;-68
2022/07/30 07:13:50;;;;;;;0.40;0.40;;;24.90;58.10;;;;;;5034677;28;20063;-67
2022/07/30 07:16:16;;;;;;;0.43;0.40;;;24.90;58.40;;;;;;5034765;28;20017;-67
2022/07/30 07:18:41;;;;;;;0.40;0.40;;;24.90;58.40;;;;;;5066036;28;20078;-67
2022/07/30 07:21:07;;;;;;;0.40;0.40;;;24.90;58.60;;;;;;5034566;28;20136;-67
2022/07/30 07:23:33;;;;;;;0.55;0.30;;;24.90;58.70;;;;;;5066584;28;20112;-67
2022/07/30 07:25:59;;;;;;;1.42;0.50;;;24.80;58.70;;;;;;5049709;28;20021;-68
2022/07/30 07:28:25;;;;;;;0.40;0.30;;;24.80;58.80;;;;;;5066041;28;20503;-67
2022/07/30 07:30:50;;;;;;;0.40;0.40;;;24.80;58.60;;;;;;5034391;28;20120;-68
2022/07/30 07:33:16;;;;;;;0.40;0.30;;;24.80;58.70;;;;;;5034030;28;20024;-68
2022/07/30 07:35:42;;;;;;;0.30;0.30;;;24.80;58.70;;;;;;5065520;28;20021;-68
2022/07/30 07:38:07;;;;;;;0.52;0.40;;;24.80;58.80;;;;;;5033828;28;20114;-67
2022/07/30 07:40:33;;;;;;;0.30;0.30;;;24.80;58.80;;;;;;5033773;28;20101;-67
2022/07/30 07:42:58;;;;;;;0.82;0.40;;;24.80;58.70;;;;;;5033617;28;20041;-68
2022/07/30 07:45:24;;;;;;;0.50;0.40;;;24.80;58.70;;;;;;5033600;28;20041;-67
2022/07/30 07:47:50;;;;;;;0.40;0.30;;;24.80;58.80;;;;;;5033368;28;20032;-68
2022/07/30 07:50:17;;;;;;;0.60;0.40;;;24.80;58.90;;;;;;5033444;28;20025;-68
2022/07/30 07:52:42;;;;;;;0.30;0.30;;;24.80;58.80;;;;;;5033564;28;20021;-67
2022/07/30 07:55:08;;;;;;;0.30;0.30;;;24.80;58.90;;;;;;5033393;28;20021;-67
2022/07/30 07:57:40;;;;;;;0.50;0.45;;;24.80;58.80;;;;;;5032662;28;20026;-67
2022/07/30 08:00:07;;;;;;;;;;;24.80;58.80;;;;;;5035338;28;20036;-67
2022/07/30 08:02:32;;;;;;;0.63;0.40;;;24.80;58.80;;;;;;5031673;28;19912;-67
2022/07/30 08:04:58;;;;;;;0.25;0.20;;;24.80;59.10;;;;;;5032064;28;20033;-67
2022/07/30 08:07:24;;;;;;;0.40;0.40;;;24.80;59.00;;;;;;5033408;28;20021;-66
2022/07/30 08:09:49;;;;;;;0.70;0.40;;;24.80;58.80;;;;;;5030814;28;20026;-67
2022/07/30 08:12:15;;;;;;;2.05;0.47;;;24.80;58.90;;;;;;5033373;28;20495;-67
2022/07/30 08:14:40;;;;;;;1.00;0.38;;;24.80;58.80;;;;;;5033402;28;20036;-66
2022/07/30 08:17:06;;;;;;;0.30;0.30;;;24.80;58.80;;;;;;5032936;28;20021;-67
2022/07/30 08:19:32;;;;;;;0.32;0.30;;;24.70;58.90;;;;;;5033368;28;20506;-67
2022/07/30 08:21:58;;;;;;;0.40;0.40;;;24.70;58.70;;;;;;5032971;28;20495;-67
2022/07/30 08:24:24;;;;;;;0.30;0.28;;;24.70;58.70;;;;;;5032395;28;20108;-67
2022/07/30 08:26:49;;;;;;;1.58;0.40;;;24.70;58.80;;;;;;5031866;28;20139;-67
2022/07/30 08:29:15;;;;;;;0.30;0.30;;;24.70;58.90;;;;;;5032857;28;20045;-67
2022/07/30 08:31:41;;;;;;;0.32;0.32;;;24.70;58.70;;;;;;5032597;28;20100;-67
2022/07/30 08:34:06;;;;;;;0.40;0.40;;;24.70;58.80;;;;;;5032816;28;20030;-67
2022/07/30 08:36:32;;;;;;;0.43;0.30;;;24.70;58.80;;;;;;5033245;28;20449;-67
2022/07/30 08:38:58;;;;;;;0.30;0.30;;;24.70;58.80;;;;;;5033295;28;20418;-67
2022/07/30 08:41:24;;;;;;;1.48;0.60;;;24.70;58.80;;;;;;5033681;28;20488;-67
2022/07/30 08:43:50;;;;;;;1.92;0.40;;;24.70;58.90;;;;;;5031969;28;20345;-67
2022/07/30 08:46:16;;;;;;;0.70;0.40;;;24.70;59.10;;;;;;5032919;28;20017;-67
2022/07/30 08:48:42;;;;;;;2.38;0.40;;;24.70;59.10;;;;;;5033622;28;20033;-67
2022/07/30 08:51:08;;;;;;;4.30;0.52;;;24.60;59.00;;;;;;5031853;28;20087;-67
2022/07/30 08:53:34;;;;;;;3.92;0.68;;;24.60;59.10;;;;;;5063236;28;20445;-67
2022/07/30 08:56:00;;;;;;;1.83;0.40;;;24.60;59.20;;;;;;5063000;28;20113;-67
2022/07/30 08:58:30;;;;;;;1.85;0.57;;;24.60;59.20;;;;;;5062771;28;20068;-67
2022/07/30 09:00:56;;;;;;;1.95;0.82;;;24.60;59.30;;;;;;5030997;28;20037;-68
2022/07/30 09:03:22;;;;;;;9.65;1.17;;;24.60;59.30;;;;;;5065694;28;20033;-67
2022/07/30 09:05:47;;;;;;;14.77;2.90;;;24.60;59.30;;;;;;5034604;28;20022;-67
2022/07/30 09:08:13;;;;;;;10.75;1.77;;;24.60;59.40;;;;;;5034053;28;20068;-67
2022/07/30 09:10:41;;;;;;;14.23;3.15;;;24.60;59.40;;;;;;5033488;28;20036;-67
2022/07/30 09:13:23;;;;;;;12.98;2.95;;;24.60;59.50;;;;;;5033171;28;20104;-67
2022/07/30 09:15:48;;;;;;;8.13;2.58;;;24.60;59.40;;;;;;5032482;28;20040;-67
2022/07/30 09:18:14;;;;;;;7.70;2.47;;;24.60;59.50;;;;;;5032546;28;20387;-67
2022/07/30 09:20:40;;;;;;;15.20;2.60;;;24.60;59.50;;;;;;5015292;28;20511;-67
2022/07/30 09:23:05;;;;;;;15.43;2.78;;;24.60;59.60;;;;;;5033573;28;20040;-67
2022/07/30 09:25:38;;;;;;;14.82;3.30;;;24.60;59.60;;;;;;5033680;28;20060;-67
2022/07/30 09:28:04;;;;;;;;;;;24.60;59.60;;;;;;5033594;28;20057;-67
2022/07/30 09:30:45;;;;;;;11.88;3.15;;;24.60;59.60;;;;;;5032372;28;20256;-67
2022/07/30 09:33:11;;;;;;;9.27;2.80;;;24.60;59.60;;;;;;5032242;28;20044;-67
2022/07/30 09:35:37;;;;;;;8.38;3.20;;;24.60;59.60;;;;;;5033537;28;20479;-67
2022/07/30 09:38:03;;;;;;;13.10;3.90;;;24.60;59.60;;;;;;5033178;28;20014;-67
2022/07/30 09:40:29;;;;;;;11.25;3.53;;;24.60;59.60;;;;;;5015848;28;20190;-67
2022/07/30 09:43:04;;;;;;;10.50;3.00;;;24.60;59.70;;;;;;5032012;28;20558;-67
2022/07/30 09:45:30;;;;;;;11.35;3.45;;;24.60;59.60;;;;;;5032243;28;20041;-67
2022/07/30 09:47:56;;;;;;;12.68;3.25;;;24.60;59.70;;;;;;5033074;28;20025;-67
2022/07/30 09:50:23;;;;;;;13.15;3.90;;;24.60;59.70;;;;;;5031976;28;20029;-67
2022/07/30 09:52:49;;;;;;;12.18;3.53;;;24.60;59.80;;;;;;5033193;28;20018;-67
2022/07/30 09:55:28;;;;;;;12.05;3.35;;;24.60;59.70;;;;;;5032976;28;20026;-67
2022/07/30 09:57:56;;;;;;;13.13;3.15;;;24.50;59.60;;;;;;5032914;28;20022;-67
2022/07/30 10:00:22;;;;;;;12.27;3.67;;;24.50;59.70;;;;;;5032661;28;20041;-67
2022/07/30 10:02:50;;;;;;;13.23;3.88;;;24.50;59.70;;;;;;5031749;28;20041;-67
2022/07/30 10:05:17;;;;;;;13.43;3.67;;;24.50;59.60;;;;;;5032804;28;20030;-67
2022/07/30 10:07:48;;;;;;;13.35;3.80;;;24.50;59.70;;;;;;5022308;28;20484;-67
2022/07/30 10:10:15;;;;;;;12.05;3.65;;;24.50;59.60;;;;;;5011846;28;20036;-67
2022/07/30 10:12:41;;;;;;;10.52;3.55;;;24.50;59.60;;;;;;5011710;28;20090;-67
2022/07/30 10:15:07;;;;;;;11.00;3.47;;;24.50;59.60;;;;;;5011863;28;20042;-68
2022/07/30 10:17:33;;;;;;;8.75;3.75;;;24.50;59.60;;;;;;5011754;28;20026;-67
2022/07/30 10:19:59;;;;;;;10.10;3.55;;;24.50;59.60;;;;;;5011693;28;20026;-67
2022/07/30 10:22:24;;;;;;;9.68;3.30;;;24.50;59.60;;;;;;5011618;28;20065;-67
2022/07/30 10:24:50;;;;;;;12.88;3.83;;;24.50;59.60;;;;;;5011999;28;20029;-67
2022/07/30 10:27:16;;;;;;;8.90;3.63;;;24.50;59.70;;;;;;5011115;28;20114;-68
2022/07/30 10:29:41;;;;;;;9.38;3.53;;;24.50;59.60;;;;;;5012654;28;20034;-67
2022/07/30 10:32:07;;;;;;;9.10;3.40;;;24.50;59.60;;;;;;5011024;28;20045;-67
2022/07/30 10:34:33;;;;;;;9.32;3.35;;;24.50;59.60;;;;;;5011607;28;20526;-68
2022/07/30 10:37:03;;;;;;;10.90;3.53;;;24.50;59.60;;;;;;4995099;28;20018;-67
2022/07/30 10:39:34;;;;;;;7.60;3.25;;;24.50;59.60;;;;;;5011718;28;20022;-67
2022/07/30 10:42:12;;;;;;;11.13;3.30;;;24.50;59.60;;;;;;5011236;28;20018;-67
2022/07/30 10:44:44;;;;;;;8.43;3.30;;;24.50;59.70;;;;;;5012696;28;20117;-67
2022/07/30 10:47:13;;;;;;;10.57;3.38;;;24.50;59.70;;;;;;5011444;28;20049;-67
2022/07/30 10:49:39;;;;;;;10.95;3.55;;;24.50;59.70;;;;;;5011630;28;20040;-67
2022/07/30 10:52:04;;;;;;;5.80;3.10;;;24.50;60.70;;;;;;5011516;28;20014;-67
2022/07/30 10:54:33;;;;;;;9.93;3.40;;;24.50;59.80;;;;;;5012459;28;20034;-67
2022/07/30 10:57:15;;;;;;;11.48;3.97;;;24.50;59.70;;;;;;5012559;28;20102;-67
2022/07/30 10:59:57;;;;;;;10.38;3.70;;;24.50;59.80;;;;;;5017033;28;20025;-68
2022/07/30 11:02:24;;;;;;;11.00;3.40;;;24.50;60.00;;;;;;5032130;28;20021;-67
2022/07/30 11:04:50;;;;;;;10.35;3.70;;;24.50;59.80;;;;;;5031177;28;20043;-67
2022/07/30 11:07:26;;;;;;;12.43;3.50;;;24.50;59.90;;;;;;5024212;28;20025;-67
2022/07/30 11:09:56;;;;;;;8.45;3.58;;;24.40;59.80;;;;;;5012152;28;20113;-68
2022/07/30 11:12:40;;;;;;;8.38;3.45;;;24.50;59.90;;;;;;5011093;28;20088;-67
2022/07/30 11:15:07;;;;;;;9.13;3.40;;;24.40;59.80;;;;;;5012417;28;20026;-68
2022/07/30 11:18:08;;;;;;;10.57;3.30;;;24.40;59.90;;;;;;5012947;28;20022;-67
2022/07/30 11:20:34;;;;;;;8.43;3.25;;;24.40;59.90;;;;;;5011104;28;20474;-67
2022/07/30 11:23:09;;;;;;;8.57;3.38;;;24.40;60.00;;;;;;5011023;28;20056;-67
2022/07/30 11:25:35;;;;;;;12.02;4.18;;;24.40;59.90;;;;;;5012108;28;20117;-67
2022/07/30 11:28:00;;;;;;;12.65;3.58;;;24.40;60.00;;;;;;5012126;28;20137;-68
2022/07/30 11:30:30;;;;;;;7.72;3.33;;;24.40;60.00;;;;;;5010911;28;20033;-68
2022/07/30 11:33:02;;;;;;;10.40;3.53;;;24.40;60.00;;;;;;5012312;28;20107;-67
2022/07/30 11:35:31;;;;;;;8.48;3.60;;;24.40;60.00;;;;;;5012315;28;20030;-68
2022/07/30 11:38:01;;;;;;;7.55;3.17;;;24.40;60.10;;;;;;5010815;28;20018;-67
2022/07/30 11:40:33;;;;;;;7.60;3.45;;;24.40;60.00;;;;;;5010949;28;20034;-67
2022/07/30 11:43:24;;;;;;;6.28;3.33;;;24.40;60.10;;;;;;5011527;28;20033;-67
2022/07/30 11:46:16;;;;;;;6.28;2.80;;;24.40;60.10;;;;;;5013018;28;20137;-68
2022/07/30 11:49:03;;;;;;;7.47;3.53;;;24.40;60.00;;;;;;5015912;28;20110;-67
2022/07/30 11:51:43;;;;;;;8.52;3.50;;;24.40;60.10;;;;;;5014726;28;20109;-67
2022/07/30 11:54:10;;;;;;;7.38;3.47;;;24.40;60.10;;;;;;5015266;28;20144;-68
2022/07/30 11:56:36;;;;;;;7.70;3.33;;;24.40;60.10;;;;;;5014347;28;20026;-67
2022/07/30 11:59:02;;;;;;;8.20;3.08;;;24.40;60.10;;;;;;5014642;28;20045;-68
2022/07/30 12:01:29;;;;;;;8.48;3.38;;;24.40;60.10;;;;;;5034041;28;20033;-68
2022/07/30 12:03:55;;;;;;;7.95;2.80;;;24.40;60.10;;;;;;5034052;28;20459;-67
2022/07/30 12:06:21;;;;;;;7.78;3.15;;;24.40;60.10;;;;;;5035023;28;20020;-67
2022/07/30 12:08:47;;;;;;;6.32;3.35;;;24.40;60.10;;;;;;5014912;28;20026;-67
2022/07/30 12:11:14;;;;;;;7.70;3.30;;;24.40;60.20;;;;;;5014046;28;20475;-67
2022/07/30 12:13:40;;;;;;;6.88;3.28;;;24.40;60.20;;;;;;5014020;28;20030;-67
2022/07/30 12:16:15;;;;;;;5.15;2.97;;;24.40;60.20;;;;;;5014161;28;20464;-67
2022/07/30 12:18:41;;;;;;;5.80;3.20;;;24.40;60.20;;;;;;5014085;28;20022;-68
2022/07/30 12:21:08;;;;;;;7.95;2.70;;;24.40;60.20;;;;;;5013959;28;20037;-67
2022/07/30 12:23:34;;;;;;;9.75;3.15;;;24.40;60.20;;;;;;5013652;28;20026;-67
2022/07/30 12:26:00;;;;;;;8.70;3.20;;;24.40;60.20;;;;;;5013977;28;21380;-67
2022/07/30 12:28:28;;;;;;;6.35;2.85;;;24.40;60.30;;;;;;5014510;28;20050;-67
2022/07/30 12:30:54;;;;;;;4.65;2.60;;;24.40;60.20;;;;;;5015037;28;20018;-67
2022/07/30 12:33:21;;;;;;;6.22;2.67;;;24.40;60.20;;;;;;5013662;28;20033;-67
2022/07/30 12:35:57;;;;;;;4.38;2.63;;;24.40;60.20;;;;;;5013789;28;20010;-67
2022/07/30 12:38:24;;;;;;;6.60;2.60;;;24.40;60.20;;;;;;5014621;28;20049;-67
2022/07/30 12:40:53;;;;;;;7.22;2.85;;;24.40;60.30;;;;;;5013666;28;20087;-68
2022/07/30 12:43:45;;;;;;;7.05;2.67;;;24.40;60.20;;;;;;5013454;28;20452;-67
2022/07/30 12:46:13;;;;;;;5.00;2.55;;;24.40;60.20;;;;;;5014704;28;20052;-67
2022/07/30 12:48:50;;;;;;;5.22;2.83;;;24.40;60.20;;;;;;5013361;28;20083;-68
2022/07/30 12:51:16;;;;;;;6.72;2.60;;;24.40;60.30;;;;;;5012969;28;20045;-67